Mc Guire Air Force Base
KWRI : rendu visible

Aérodrome :











RETROUVEZ-NOUS SUR...

 
LOGIN :

S'inscrire | Disclaimer

   EN    FR    IT 

 









Légende :    VFR   VFR Marginal   IFR   IFR Intensif   IFR Très Intensif
Visi : 
Plafond : 
>= 8 km
>= 3000ft
5 à 8 km
1000 à 3000 ft
1500m à 5 km
500 à 1000 ft
800 à 1500m
200 à 500 ft
< 800m
< 200 ft
Symboles :   Orages  Brouillard  Fortes neiges  Fortes précipitations  Vent > 20 kt






- Altitude de l'aérodrome : 131 ft
- Code IATA : WRI


KWRI - Mc Guire Air Force Base

DERNIER METAR :
  • 150956Z 26011KT 10SM CLR 05/00 A2968 RMK AO2A SLP051 T00520004

METARs EXPIRÉS :
  • 150856Z 28010G19KT 10SM SCT046 06/00 A2964 RMK AO2A SLP037 T00580003 52037
  • 150756Z 28014G21KT 10SM SCT039 SCT140 06/00 A2961 RMK AO2A SLP027 T00581001

TAF TAF KWRI
Valide du 15 à 10h jusqu'au 16 à 16h UTC


151000Z 1510/1616 28014KT 9999 SCT030 QNH2967INS
TEMPO 1515/1520 27015G25KT BKN020
BECMG 1521/1522 28009KT 9999 FEW050 QNH2997INS
BECMG 1610/1611 23004KT 9999 BKN040 QNH3021INS
BECMG 1614/1615 VRB06KT 9999 VCSH BKN015 QNH3019INS TX07/1518Z TNM03/1609Z



MET'MAP, la Météo Aéronautique d'un coup d'oeil ! - Copyright ORBIFLY Décembre 2007 - Disclaimer

ORBIFLY MET'MAP TEAM :

Programmation & Développement : Alexandra Zaïnal
Sur une idée originale de : Baudouin d'Aumeries
Assistance à la programmation : Marc-Olivier Méhu
Soutien technique & logistique : Manuel Goepfert

Contact : metmap@orbifly.com




SOURCES & CREDITS :

   NOAA       Earth
Advisory